x

Corpus Christi, Tx - 60nm Sse Of Corpus Christi, Tx (42020) Wave Buoy

5:50am - Tue 23rd May 2017 All times are CDT. -5 hours from GMT.

  • Sig Wave height 4.6ft
  • Swell Direction
  • Peak Period 7s
  • Average Period 6s
  • Wind
    13mph, 16mph gusts
  • Air Temp 78°f
  • Sea Pressure 1007.3mb
  • Corpus Christi, Tx - 60nm Sse Of Corpus Christi, Tx
  • Corpus Christi, Tx - 60nm Sse Of Corpus Christi, Tx

More Historic Weather Station data

Upgrade to MSW Pro to gain access to the past 30 days of data for over 8000 Wavebouys and Weather Stations around the globe.

Join Pro

Comparision Forecast

View Surf forecast
   
Tue 05/23 5:50am 4.5ft 7s 6s 13 16 mph 1007.3mb 78f
4:50am 4.5ft 7s 6s 9 11 mph 1008.4mb 78f
3:50am 4.5ft 7s 6s 7 9 mph 1008.4mb 78f
2:50am 5.5ft 7s 6s 7 9 mph 1008.5mb 79f
1:50am 5ft 8s 6s 9 11 mph 1009.2mb 79f
12:50am 5.5ft 8s 6s 9 11 mph 1009.7mb 79f
Mon 05/22 11:50pm 5ft 8s 6s 9 11 mph 1010.1mb 79f
10:50pm 5ft 8s 6s 4 7 mph 1009.4mb 79f
9:50pm 5ft 7s 6s 2 2 mph 1008.6mb 79f
8:50pm 5ft 8s 6s 7 7 mph 1008.4mb 79f
7:50pm 5ft 8s 6s 4 4 mph 1008.4mb 79f
6:50pm 5ft 8s 6s 4 4 mph 1008.3mb 80f
5:50pm 5.5ft 8s 6s 7 9 mph 1008.4mb 79f
4:50pm 5ft 8s 6s 13 16 mph 1009.1mb 78f
3:50pm 4.5ft 8s 5s 13 18 mph 1009.9mb 78f
2:50pm 5ft 7s 5s 13 16 mph 1010.5mb 78f
1:50pm 4.5ft 7s 6s 13 16 mph 1010.7mb 78f
12:50pm 5ft 6s 5s 4 7 mph 1011.4mb 79f
11:50am 5ft 6s 5s 11 13 mph 1011.3mb 80f
10:50am 4.5ft 7s 5s 13 18 mph 1011.4mb 80f
9:50am 4.5ft 7s 5s 18 20 mph 1011.8mb 80f
7:50am 4.5ft 6s 5s 11 13 mph 1011.6mb 80f
6:50am 4.5ft 7s 5s 16 20 mph 1010.3mb 80f
5:50am 4ft 7s 5s 16 20 mph 1011.3mb 80f
4:50am 4ft 5s 4s 18 22 mph 1011.1mb 80f
3:50am 3.5ft 7s 4s 18 22 mph 1011.4mb 80f
2:50am 3.5ft 7s 4s 18 20 mph 1011.8mb 80f
1:50am 3.5ft 7s 5s 18 20 mph 1013.3mb 80f
12:50am 3.5ft 7s 4s 16 20 mph 1013mb 80f
Sun 05/21 11:50pm 3.5ft 7s 5s 16 18 mph 1012.6mb 80f
10:50pm 3.5ft 7s 5s 11 13 mph 1013.8mb 80f
9:50pm 3.5ft 7s 5s 9 11 mph 1013.5mb 80f
7:50pm 3.5ft 7s 5s 11 13 mph 1011.4mb 80f
6:50pm 3.5ft 7s 5s 11 13 mph 1011.4mb 80f
5:50pm 3.5ft 7s 5s 7 9 mph 1011.4mb 80f
4:50pm 3.5ft 7s 5s 9 11 mph 1011mb 80f
3:50pm 3.5ft 7s 5s 13 16 mph 1011.3mb 80f
2:50pm 3.5ft 7s 5s 13 16 mph 1012.7mb 80f
1:50pm 3.5ft 6s 5s 11 13 mph 1013.3mb 80f
12:50pm 3.5ft 7s 5s 11 13 mph 1013.7mb 80f
11:50am 3.5ft 7s 5s 9 11 mph 1014.2mb 80f
10:50am 3.5ft 8s 5s 7 9 mph 1014.5mb 80f
9:50am 3.5ft 7s 5s 7 9 mph 1014mb 79f
8:50am 3.5ft 7s 5s 11 13 mph 1013.6mb 79f
7:50am 3.5ft 7s 5s 4 4 mph 1013.7mb 79f
6:50am 3.5ft 7s 5s 7 7 mph 1012.8mb 79f
5:50am 4ft 7s 5s 9 11 mph 1011.5mb 79f
4:50am 4ft 7s 5s 9 11 mph 1011mb 79f
3:50am 4.5ft 8s 5s 11 13 mph 1010.9mb 79f
2:50am 4.5ft 7s 5s 11 13 mph 1011.3mb 80f
1:50am 4.5ft 7s 5s 9 13 mph 1011.9mb 80f
12:50am 4.5ft 8s 5s 18 20 mph 1010.9mb 80f
Sat 05/20 11:50pm 4.5ft 8s 5s 18 22 mph 1010.5mb 79f
10:50pm 4.5ft 7s 5s 16 18 mph 1010.2mb 79f
9:50pm 4.5ft 7s 6s 9 11 mph 1010.8mb 79f
8:50pm 4.5ft 7s 5s 9 11 mph 1010.8mb 79f
7:50pm 4.5ft 7s 5s 11 13 mph 1009.5mb 79f
6:50pm 5ft 8s 6s 9 11 mph 1009.9mb 80f
4:50pm 4.5ft 7s 6s 11 13 mph 1008.9mb 80f
3:50pm 5ft 8s 6s 7 9 mph 1009.5mb 80f
2:50pm 5ft 8s 6s 9 11 mph 1009.7mb 80f
1:50pm 6ft 8s 6s 9 13 mph 1009.9mb 80f
12:50pm 5ft 8s 6s 13 16 mph 1009.6mb 79f
11:50am 5ft 8s 6s 13 16 mph 1009.3mb 79f
10:50am 6ft 6s 6s 11 13 mph 1009.2mb 79f
9:50am 5.5ft 8s 6s 13 18 mph 1008.5mb 79f
8:50am 6.5ft 8s 6s 16 18 mph 1008mb 79f
7:50am 6ft 8s 5s 16 20 mph 1007.5mb 79f
6:50am 6.5ft 8s 6s 16 18 mph 1007.2mb 79f
5:50am 6ft 8s 5s 16 18 mph 1006.8mb 79f
4:50am 6ft 8s 5s 18 22 mph 1006.5mb 79f
3:50am 6ft 8s 6s 18 22 mph 1006mb 79f
2:50am 6ft 8s 5s 18 22 mph 1006.3mb 79f
1:50am 6ft 7s 5s 20 25 mph 1006.3mb 79f
12:50am 5.5ft 7s 5s 18 22 mph 1007mb 79f
Fri 05/19 11:50pm 5.5ft 7s 5s 18 20 mph 1007mb 79f
10:50pm 5.5ft 7s 5s 18 22 mph 1006.9mb 79f
9:50pm 5.5ft 7s 5s 18 20 mph 1006.5mb 79f
8:50pm 6ft 8s 6s 16 20 mph 1005.8mb 79f
7:50pm 5.5ft 7s 5s 16 18 mph 1005.6mb 80f
6:50pm 5ft 7s 5s 16 18 mph 1005.4mb 80f
5:50pm 6.5ft 8s 6s 16 20 mph 1005.3mb 80f
4:50pm 6ft 8s 6s 16 20 mph 1005.4mb 80f
3:50pm 7ft 8s 6s 13 18 mph 1005.9mb 80f
1:50pm 6.5ft 8s 6s 16 20 mph 1006.6mb 79f
12:50pm 6.5ft 8s 6s 18 22 mph 1006.9mb 79f